PWSweather.com
Personal Weather Stations
Station Observations
RYAN1946
Layla Drive, Medford, OR 97501

Layla DriveMedford, OR 97501

Lat: 42.31, Lon: -122.9

Elevation: 1491

Station Type:

http://www.ryanweather.com

High Low Average
Temperature 47.1°F8.4°C 44.2°F6.8°C 45.2°F7.3°C
Dew Point 41.0°F5.0°C 38.9°F3.8°C 40.0°F4.4°C
Winds 15.0 mph 24.1 kmh 2.0 mph 3.2 kmh 10.0 mph ESE16.1 kmh ESE
Wind Gusts 22.0 mph35.4 kmh 6.0 mph9.7 kmh 15.0 mph24.1 kmh
Humidity 86% 74% 82%
Pressure 29.76 in1007.8 mb 29.72 in1006.4 mb -
Precipitation 0.78 in19.8 mm - -
Hour Temp Dew Point Humidity Winds Wind Gusts Pressure Precip Precip Rate Daily Precip Total
09:40 AM 44.9°F7.2°C 39.4°F4.1°C 81% 10.0 mph SE16.1 kmh SE 18.0 mph29.0 kmh 29.74 in1007.1 mb 0.01 in0.3 mm 0.02 in/hr0.5 mm/hr 0.31 in7.9 mm
09:50 AM 44.9°F7.2°C 39.4°F4.1°C 81% 13.0 mph E20.9 kmh E 14.0 mph22.5 kmh 29.74 in1007.1 mb 0.02 in0.5 mm 0.12 in/hr3.0 mm/hr 0.32 in8.1 mm
10:00 AM 44.9°F7.2°C 39.1°F3.9°C 80% 13.0 mph ESE20.9 kmh ESE 20.0 mph32.2 kmh 29.74 in1007.1 mb 0.02 in0.5 mm 0.02 in/hr0.5 mm/hr 0.34 in8.6 mm
10:10 AM 44.6°F7.0°C 39.1°F3.9°C 81% 8.0 mph SE12.9 kmh SE 12.0 mph19.3 kmh 29.74 in1007.1 mb 0.02 in0.5 mm 0.12 in/hr3.0 mm/hr 0.36 in9.1 mm
10:20 AM 44.5°F6.9°C 39.7°F4.3°C 83% 7.0 mph ESE11.3 kmh ESE 13.0 mph20.9 kmh 29.74 in1007.1 mb 0.02 in0.5 mm 0.12 in/hr3.0 mm/hr 0.38 in9.7 mm
10:30 AM 44.5°F6.9°C 39.7°F4.3°C 83% 9.0 mph S14.5 kmh S 18.0 mph29.0 kmh 29.74 in1007.1 mb 0.03 in0.8 mm 0.18 in/hr4.6 mm/hr 0.40 in10.2 mm
10:40 AM 44.2°F6.8°C 39.7°F4.3°C 84% 12.0 mph SE19.3 kmh SE 17.0 mph27.4 kmh 29.73 in1006.8 mb 0.03 in0.8 mm 0.18 in/hr4.6 mm/hr 0.43 in10.9 mm
10:50 AM 44.6°F7.0°C 40.1°F4.5°C 84% 6.0 mph ENE9.7 kmh ENE 12.0 mph19.3 kmh 29.74 in1007.1 mb 0.03 in0.8 mm 0.18 in/hr4.6 mm/hr 0.45 in11.4 mm
11:00 AM 44.8°F7.1°C 40.2°F4.6°C 84% 6.0 mph NE9.7 kmh NE 9.0 mph14.5 kmh 29.74 in1007.1 mb 0.02 in0.5 mm 0.02 in/hr0.5 mm/hr 0.47 in11.9 mm
11:10 AM 44.9°F7.2°C 41.0°F5.0°C 86% 2.0 mph ENE3.2 kmh ENE 6.0 mph9.7 kmh 29.74 in1007.1 mb 0.03 in0.8 mm 0.18 in/hr4.6 mm/hr 0.50 in12.7 mm
11:20 AM 45.0°F7.2°C 40.8°F4.9°C 85% 13.0 mph E20.9 kmh E 16.0 mph25.7 kmh 29.74 in1007.1 mb 0.03 in0.8 mm 0.18 in/hr4.6 mm/hr 0.52 in13.2 mm
11:30 AM 44.8°F7.1°C 40.3°F4.6°C 84% 9.0 mph E14.5 kmh E 12.0 mph19.3 kmh 29.74 in1007.1 mb 0.03 in0.8 mm 0.18 in/hr4.6 mm/hr 0.55 in14.0 mm
11:40 AM 44.9°F7.2°C 40.7°F4.8°C 85% 9.0 mph E14.5 kmh E 13.0 mph20.9 kmh 29.74 in1007.1 mb 0.03 in0.8 mm 0.18 in/hr4.6 mm/hr 0.57 in14.5 mm
11:50 AM 44.9°F7.2°C 40.7°F4.8°C 85% 9.0 mph E14.5 kmh E 12.0 mph19.3 kmh 29.74 in1007.1 mb 0.02 in0.5 mm 0.12 in/hr3.0 mm/hr 0.58 in14.7 mm
12:00 PM 45.1°F7.3°C 40.9°F4.9°C 85% 8.0 mph NE12.9 kmh NE 10.0 mph16.1 kmh 29.74 in1007.1 mb 0.02 in0.5 mm 0.02 in/hr0.5 mm/hr 0.60 in15.2 mm
12:10 PM 44.9°F7.2°C 40.7°F4.8°C 85% 10.0 mph ENE16.1 kmh ENE 12.0 mph19.3 kmh 29.74 in1007.1 mb 0.01 in0.3 mm 0.06 in/hr1.5 mm/hr 0.61 in15.5 mm
12:20 PM 44.6°F7.0°C 40.4°F4.7°C 85% 10.0 mph ESE16.1 kmh ESE 16.0 mph25.7 kmh 29.73 in1006.8 mb 0.03 in0.8 mm 0.18 in/hr4.6 mm/hr 0.64 in16.3 mm
12:30 PM 44.6°F7.0°C 40.4°F4.7°C 85% 12.0 mph ESE19.3 kmh ESE 14.0 mph22.5 kmh 29.74 in1007.1 mb 0.02 in0.5 mm 0.12 in/hr3.0 mm/hr 0.66 in16.8 mm
12:40 PM 44.5°F6.9°C 40.3°F4.6°C 85% 7.0 mph SE11.3 kmh SE 14.0 mph22.5 kmh 29.74 in1007.1 mb 0.02 in0.5 mm 0.12 in/hr3.0 mm/hr 0.68 in17.3 mm
12:50 PM 44.5°F6.9°C 40.3°F4.6°C 85% 7.0 mph ESE11.3 kmh ESE 12.0 mph19.3 kmh 29.75 in1007.5 mb 0.02 in0.5 mm 0.12 in/hr3.0 mm/hr 0.70 in17.8 mm
01:00 PM 44.4°F6.9°C 39.9°F4.4°C 84% 7.0 mph E11.3 kmh E 10.0 mph16.1 kmh 29.76 in1007.8 mb 0.02 in0.5 mm 0.02 in/hr0.5 mm/hr 0.72 in18.3 mm
01:10 PM 44.3°F6.8°C 39.8°F4.3°C 84% 8.0 mph ESE12.9 kmh ESE 13.0 mph20.9 kmh 29.75 in1007.5 mb 0.03 in0.8 mm 0.18 in/hr4.6 mm/hr 0.74 in18.8 mm
01:20 PM 44.3°F6.8°C 40.1°F4.5°C 85% 10.0 mph ESE16.1 kmh ESE 14.0 mph22.5 kmh 29.75 in1007.5 mb 0.01 in0.3 mm 0.06 in/hr1.5 mm/hr 0.75 in19.1 mm
01:30 PM 44.5°F6.9°C 40.3°F4.6°C 85% 8.0 mph ESE12.9 kmh ESE 12.0 mph19.3 kmh 29.74 in1007.1 mb 0.01 in0.3 mm 0.06 in/hr1.5 mm/hr 0.76 in19.3 mm
01:40 PM 44.5°F6.9°C 40.6°F4.8°C 86% 9.0 mph SE14.5 kmh SE 14.0 mph22.5 kmh 29.73 in1006.8 mb 0.01 in0.3 mm 0.06 in/hr1.5 mm/hr 0.77 in19.6 mm
01:50 PM 44.6°F7.0°C 40.1°F4.5°C 84% 9.0 mph SE14.5 kmh SE 15.0 mph24.1 kmh 29.74 in1007.1 mb 0.01 in0.3 mm 0.06 in/hr1.5 mm/hr 0.78 in19.8 mm
02:00 PM 44.5°F6.9°C 39.7°F4.3°C 83% 6.0 mph E9.7 kmh E 6.0 mph9.7 kmh 29.74 in1007.1 mb 0.00 in0.0 mm 0.00 in/hr0.0 mm/hr 0.78 in19.8 mm
02:10 PM 44.5°F6.9°C 39.7°F4.3°C 83% 15.0 mph E24.1 kmh E 18.0 mph29.0 kmh 29.74 in1007.1 mb 0.00 in0.0 mm 0.00 in/hr0.0 mm/hr 0.78 in19.8 mm
02:20 PM 44.5°F6.9°C 39.7°F4.3°C 83% 10.0 mph SE16.1 kmh SE 16.0 mph25.7 kmh 29.74 in1007.1 mb 0.00 in0.0 mm 0.00 in/hr0.0 mm/hr 0.78 in19.8 mm
02:30 PM 44.9°F7.2°C 40.0°F4.4°C 83% 12.0 mph SE19.3 kmh SE 20.0 mph32.2 kmh 29.74 in1007.1 mb 0.00 in0.0 mm 0.00 in/hr0.0 mm/hr 0.78 in19.8 mm
02:40 PM 45.2°F7.3°C 40.0°F4.4°C 82% 12.0 mph SE19.3 kmh SE 18.0 mph29.0 kmh 29.73 in1006.8 mb 0.00 in0.0 mm 0.00 in/hr0.0 mm/hr 0.78 in19.8 mm
02:50 PM 45.4°F7.4°C 39.6°F4.2°C 80% 13.0 mph SE20.9 kmh SE 14.0 mph22.5 kmh 29.74 in1007.1 mb 0.00 in0.0 mm 0.00 in/hr0.0 mm/hr 0.78 in19.8 mm
03:00 PM 45.8°F7.7°C 39.7°F4.3°C 79% 13.0 mph SE20.9 kmh SE 20.0 mph32.2 kmh 29.73 in1006.8 mb 0.00 in0.0 mm 0.00 in/hr0.0 mm/hr 0.78 in19.8 mm
03:10 PM 46.4°F8.0°C 39.9°F4.4°C 78% 13.0 mph SE20.9 kmh SE 17.0 mph27.4 kmh 29.72 in1006.4 mb 0.00 in0.0 mm 0.00 in/hr0.0 mm/hr 0.78 in19.8 mm
03:20 PM 47.1°F8.4°C 40.3°F4.6°C 77% 10.0 mph E16.1 kmh E 12.0 mph19.3 kmh 29.72 in1006.4 mb 0.00 in0.0 mm 0.00 in/hr0.0 mm/hr 0.78 in19.8 mm
03:30 PM 46.7°F8.2°C 39.9°F4.4°C 77% 13.0 mph SE20.9 kmh SE 20.0 mph32.2 kmh 29.73 in1006.8 mb 0.00 in0.0 mm 0.00 in/hr0.0 mm/hr 0.78 in19.8 mm
03:40 PM 46.5°F8.1°C 39.7°F4.3°C 77% 14.0 mph ESE22.5 kmh ESE 22.0 mph35.4 kmh 29.73 in1006.8 mb 0.00 in0.0 mm 0.00 in/hr0.0 mm/hr 0.78 in19.8 mm
03:50 PM 46.5°F8.1°C 39.7°F4.3°C 77% 14.0 mph SE22.5 kmh SE 20.0 mph32.2 kmh 29.73 in1006.8 mb 0.00 in0.0 mm 0.00 in/hr0.0 mm/hr 0.78 in19.8 mm
04:00 PM 46.7°F8.2°C 39.9°F4.4°C 77% 9.0 mph ESE14.5 kmh ESE 14.0 mph22.5 kmh 29.73 in1006.8 mb 0.00 in0.0 mm 0.00 in/hr0.0 mm/hr 0.78 in19.8 mm
04:10 PM 46.7°F8.2°C 39.6°F4.2°C 76% 12.0 mph SE19.3 kmh SE 18.0 mph29.0 kmh 29.72 in1006.4 mb 0.00 in0.0 mm 0.00 in/hr0.0 mm/hr 0.78 in19.8 mm
04:20 PM 46.8°F8.2°C 39.3°F4.1°C 75% 12.0 mph ESE19.3 kmh ESE 13.0 mph20.9 kmh 29.72 in1006.4 mb 0.00 in0.0 mm 0.00 in/hr0.0 mm/hr 0.78 in19.8 mm
04:30 PM 47.1°F8.4°C 39.2°F4.0°C 74% 9.0 mph SE14.5 kmh SE 17.0 mph27.4 kmh 29.72 in1006.4 mb 0.00 in0.0 mm 0.00 in/hr0.0 mm/hr 0.78 in19.8 mm
04:40 PM 46.8°F8.2°C 38.9°F3.8°C 74% 13.0 mph SE20.9 kmh SE 17.0 mph27.4 kmh 29.72 in1006.4 mb 0.00 in0.0 mm 0.00 in/hr0.0 mm/hr 0.78 in19.8 mm
04:50 PM 46.7°F8.2°C 38.9°F3.8°C 74% 8.0 mph SE12.9 kmh SE 16.0 mph25.7 kmh 29.73 in1006.8 mb 0.00 in0.0 mm 0.00 in/hr0.0 mm/hr 0.78 in19.8 mm
05:00 PM 46.5°F8.1°C 39.0°F3.9°C 75% 9.0 mph SE14.5 kmh SE 13.0 mph20.9 kmh 29.72 in1006.4 mb 0.00 in0.0 mm 0.00 in/hr0.0 mm/hr 0.78 in19.8 mm
05:10 PM 46.5°F8.1°C 38.7°F3.7°C 74% 7.0 mph SE11.3 kmh SE 13.0 mph20.9 kmh 29.73 in1006.8 mb 0.00 in0.0 mm 0.00 in/hr0.0 mm/hr 0.78 in19.8 mm
05:20 PM 46.7°F8.2°C 38.9°F3.8°C 74% 15.0 mph SE24.1 kmh SE 18.0 mph29.0 kmh 29.72 in1006.4 mb 0.00 in0.0 mm 0.00 in/hr0.0 mm/hr 0.78 in19.8 mm
05:30 PM 46.5°F8.1°C 39.3°F4.1°C 76% 14.0 mph SE22.5 kmh SE 20.0 mph32.2 kmh 29.72 in1006.4 mb 0.00 in0.0 mm 0.00 in/hr0.0 mm/hr 0.78 in19.8 mm
05:40 PM 46.1°F7.8°C 39.3°F4.1°C 77% 8.0 mph S12.9 kmh S 10.0 mph16.1 kmh 29.73 in1006.8 mb 0.00 in0.0 mm 0.00 in/hr0.0 mm/hr 0.78 in19.8 mm
05:50 PM 46.0°F7.8°C 39.2°F4.0°C 77% 13.0 mph ESE20.9 kmh ESE 17.0 mph27.4 kmh 29.73 in1006.8 mb 0.00 in0.0 mm 0.00 in/hr0.0 mm/hr 0.78 in19.8 mm